sensor_id;sensor_type;location;lat;lon;timestamp;P1;durP1;ratioP1;P2;durP2;ratioP2
51244;SDS011;37840;47.562;18.738;2023-04-19T00:00:46;3.05;;;2.60;;
51244;SDS011;37840;47.562;18.738;2023-04-19T00:03:12;3.05;;;2.60;;
51244;SDS011;37840;47.562;18.738;2023-04-19T00:05:38;3.70;;;2.65;;
51244;SDS011;37840;47.562;18.738;2023-04-19T00:08:06;2.92;;;2.60;;
51244;SDS011;37840;47.562;18.738;2023-04-19T00:10:32;3.78;;;2.58;;
51244;SDS011;37840;47.562;18.738;2023-04-19T00:13:00;3.72;;;2.47;;
51244;SDS011;37840;47.562;18.738;2023-04-19T00:15:26;2.55;;;2.35;;
51244;SDS011;37840;47.562;18.738;2023-04-19T00:17:52;5.05;;;2.62;;
51244;SDS011;37840;47.562;18.738;2023-04-19T00:20:19;3.28;;;2.10;;
51244;SDS011;37840;47.562;18.738;2023-04-19T00:22:46;2.37;;;2.15;;
51244;SDS011;37840;47.562;18.738;2023-04-19T00:25:12;2.67;;;2.47;;
51244;SDS011;37840;47.562;18.738;2023-04-19T00:27:38;4.50;;;2.70;;
51244;SDS011;37840;47.562;18.738;2023-04-19T00:30:04;3.35;;;2.40;;
51244;SDS011;37840;47.562;18.738;2023-04-19T00:32:30;3.42;;;2.70;;
51244;SDS011;37840;47.562;18.738;2023-04-19T00:34:56;2.45;;;2.25;;
51244;SDS011;37840;47.562;18.738;2023-04-19T00:37:22;3.12;;;2.58;;
51244;SDS011;37840;47.562;18.738;2023-04-19T00:39:48;2.92;;;2.42;;
51244;SDS011;37840;47.562;18.738;2023-04-19T00:42:14;2.92;;;2.58;;
51244;SDS011;37840;47.562;18.738;2023-04-19T00:44:40;3.15;;;2.17;;
51244;SDS011;37840;47.562;18.738;2023-04-19T00:47:06;2.87;;;2.50;;
51244;SDS011;37840;47.562;18.738;2023-04-19T00:49:33;2.50;;;2.30;;
51244;SDS011;37840;47.562;18.738;2023-04-19T00:51:59;5.05;;;2.70;;
51244;SDS011;37840;47.562;18.738;2023-04-19T00:54:25;3.58;;;2.75;;
51244;SDS011;37840;47.562;18.738;2023-04-19T00:56:51;4.35;;;2.80;;
51244;SDS011;37840;47.562;18.738;2023-04-19T00:59:17;3.92;;;2.97;;
51244;SDS011;37840;47.562;18.738;2023-04-19T01:01:44;3.95;;;2.80;;
51244;SDS011;37840;47.562;18.738;2023-04-19T01:04:10;3.37;;;2.70;;
51244;SDS011;37840;47.562;18.738;2023-04-19T01:06:36;3.47;;;2.65;;
51244;SDS011;37840;47.562;18.738;2023-04-19T01:09:02;3.40;;;2.70;;
51244;SDS011;37840;47.562;18.738;2023-04-19T01:11:29;4.30;;;2.80;;
51244;SDS011;37840;47.562;18.738;2023-04-19T01:13:55;3.80;;;3.08;;
51244;SDS011;37840;47.562;18.738;2023-04-19T01:16:21;4.55;;;3.25;;
51244;SDS011;37840;47.562;18.738;2023-04-19T01:18:47;3.30;;;2.95;;
51244;SDS011;37840;47.562;18.738;2023-04-19T01:21:13;4.35;;;3.62;;
51244;SDS011;37840;47.562;18.738;2023-04-19T01:23:39;6.00;;;3.78;;
51244;SDS011;37840;47.562;18.738;2023-04-19T01:26:05;5.43;;;4.07;;
51244;SDS011;37840;47.562;18.738;2023-04-19T01:28:31;4.87;;;3.67;;
51244;SDS011;37840;47.562;18.738;2023-04-19T01:30:57;5.10;;;4.12;;
51244;SDS011;37840;47.562;18.738;2023-04-19T01:33:24;6.62;;;4.95;;
51244;SDS011;37840;47.562;18.738;2023-04-19T01:35:50;8.07;;;6.62;;
51244;SDS011;37840;47.562;18.738;2023-04-19T01:38:16;8.43;;;6.32;;
51244;SDS011;37840;47.562;18.738;2023-04-19T01:40:42;9.88;;;8.20;;
51244;SDS011;37840;47.562;18.738;2023-04-19T01:43:11;8.50;;;7.25;;
51244;SDS011;37840;47.562;18.738;2023-04-19T01:45:38;9.40;;;7.90;;
51244;SDS011;37840;47.562;18.738;2023-04-19T01:48:04;8.98;;;6.90;;
51244;SDS011;37840;47.562;18.738;2023-04-19T01:50:30;8.35;;;6.70;;
51244;SDS011;37840;47.562;18.738;2023-04-19T01:52:57;9.77;;;7.35;;
51244;SDS011;37840;47.562;18.738;2023-04-19T01:55:23;9.90;;;8.23;;
51244;SDS011;37840;47.562;18.738;2023-04-19T01:57:49;12.37;;;8.38;;
51244;SDS011;37840;47.562;18.738;2023-04-19T02:00:17;8.95;;;7.45;;
51244;SDS011;37840;47.562;18.738;2023-04-19T02:02:43;10.25;;;7.45;;
51244;SDS011;37840;47.562;18.738;2023-04-19T02:05:09;10.90;;;6.75;;
51244;SDS011;37840;47.562;18.738;2023-04-19T02:07:36;6.12;;;5.22;;
51244;SDS011;37840;47.562;18.738;2023-04-19T02:10:03;8.88;;;5.20;;
51244;SDS011;37840;47.562;18.738;2023-04-19T02:12:30;9.70;;;5.90;;
51244;SDS011;37840;47.562;18.738;2023-04-19T02:14:58;8.75;;;6.60;;
51244;SDS011;37840;47.562;18.738;2023-04-19T02:17:26;8.10;;;6.25;;
51244;SDS011;37840;47.562;18.738;2023-04-19T02:19:53;7.95;;;6.35;;
51244;SDS011;37840;47.562;18.738;2023-04-19T02:22:19;10.57;;;6.53;;
51244;SDS011;37840;47.562;18.738;2023-04-19T02:24:45;9.27;;;6.55;;
51244;SDS011;37840;47.562;18.738;2023-04-19T02:27:12;7.40;;;5.93;;
51244;SDS011;37840;47.562;18.738;2023-04-19T02:29:38;8.05;;;6.37;;
51244;SDS011;37840;47.562;18.738;2023-04-19T02:32:04;8.80;;;7.22;;
51244;SDS011;37840;47.562;18.738;2023-04-19T02:34:31;8.30;;;6.53;;
51244;SDS011;37840;47.562;18.738;2023-04-19T02:36:59;8.30;;;6.22;;
51244;SDS011;37840;47.562;18.738;2023-04-19T02:39:25;8.00;;;6.57;;
51244;SDS011;37840;47.562;18.738;2023-04-19T02:41:51;7.93;;;6.80;;
51244;SDS011;37840;47.562;18.738;2023-04-19T02:44:17;8.20;;;6.57;;
51244;SDS011;37840;47.562;18.738;2023-04-19T02:46:53;7.87;;;6.43;;
51244;SDS011;37840;47.562;18.738;2023-04-19T02:49:19;8.05;;;6.53;;
51244;SDS011;37840;47.562;18.738;2023-04-19T02:51:45;7.75;;;6.43;;
51244;SDS011;37840;47.562;18.738;2023-04-19T02:54:11;7.95;;;6.55;;
51244;SDS011;37840;47.562;18.738;2023-04-19T02:56:38;8.25;;;6.50;;
51244;SDS011;37840;47.562;18.738;2023-04-19T02:59:04;9.43;;;7.60;;
51244;SDS011;37840;47.562;18.738;2023-04-19T03:01:30;11.20;;;7.18;;
51244;SDS011;37840;47.562;18.738;2023-04-19T03:03:57;10.80;;;7.03;;
51244;SDS011;37840;47.562;18.738;2023-04-19T03:06:23;11.18;;;7.18;;
51244;SDS011;37840;47.562;18.738;2023-04-19T03:08:49;9.73;;;7.15;;
51244;SDS011;37840;47.562;18.738;2023-04-19T03:11:15;9.52;;;7.30;;
51244;SDS011;37840;47.562;18.738;2023-04-19T03:13:42;11.38;;;7.60;;
51244;SDS011;37840;47.562;18.738;2023-04-19T03:16:08;8.57;;;6.55;;
51244;SDS011;37840;47.562;18.738;2023-04-19T03:18:34;9.20;;;7.40;;
51244;SDS011;37840;47.562;18.738;2023-04-19T03:21:01;7.90;;;6.62;;
51244;SDS011;37840;47.562;18.738;2023-04-19T03:23:28;9.63;;;7.00;;
51244;SDS011;37840;47.562;18.738;2023-04-19T03:25:54;10.35;;;7.30;;
51244;SDS011;37840;47.562;18.738;2023-04-19T03:28:21;10.95;;;7.80;;
51244;SDS011;37840;47.562;18.738;2023-04-19T03:30:47;9.85;;;7.62;;
51244;SDS011;37840;47.562;18.738;2023-04-19T03:33:13;9.80;;;7.50;;
51244;SDS011;37840;47.562;18.738;2023-04-19T03:35:39;11.65;;;7.07;;
51244;SDS011;37840;47.562;18.738;2023-04-19T03:38:05;8.68;;;6.72;;
51244;SDS011;37840;47.562;18.738;2023-04-19T03:40:35;8.48;;;7.32;;
51244;SDS011;37840;47.562;18.738;2023-04-19T03:43:02;8.68;;;7.25;;
51244;SDS011;37840;47.562;18.738;2023-04-19T03:45:28;8.70;;;7.05;;
51244;SDS011;37840;47.562;18.738;2023-04-19T03:47:55;8.25;;;6.95;;
51244;SDS011;37840;47.562;18.738;2023-04-19T03:50:21;9.10;;;7.32;;
51244;SDS011;37840;47.562;18.738;2023-04-19T03:52:46;12.32;;;8.00;;
51244;SDS011;37840;47.562;18.738;2023-04-19T03:55:12;9.00;;;6.97;;
51244;SDS011;37840;47.562;18.738;2023-04-19T03:57:38;10.07;;;6.93;;
51244;SDS011;37840;47.562;18.738;2023-04-19T04:00:04;8.50;;;6.95;;
51244;SDS011;37840;47.562;18.738;2023-04-19T04:02:37;8.60;;;7.28;;
51244;SDS011;37840;47.562;18.738;2023-04-19T04:05:04;9.40;;;7.75;;
51244;SDS011;37840;47.562;18.738;2023-04-19T04:07:31;10.48;;;7.15;;
51244;SDS011;37840;47.562;18.738;2023-04-19T04:09:57;9.57;;;6.97;;
51244;SDS011;37840;47.562;18.738;2023-04-19T04:12:22;8.02;;;6.40;;
51244;SDS011;37840;47.562;18.738;2023-04-19T04:14:48;8.15;;;6.62;;
51244;SDS011;37840;47.562;18.738;2023-04-19T04:17:14;8.30;;;6.70;;
51244;SDS011;37840;47.562;18.738;2023-04-19T04:19:40;8.02;;;6.53;;
51244;SDS011;37840;47.562;18.738;2023-04-19T04:22:06;9.48;;;6.37;;
51244;SDS011;37840;47.562;18.738;2023-04-19T04:24:41;7.57;;;6.60;;
51244;SDS011;37840;47.562;18.738;2023-04-19T04:27:08;7.95;;;6.65;;
51244;SDS011;37840;47.562;18.738;2023-04-19T04:29:35;7.85;;;6.37;;
51244;SDS011;37840;47.562;18.738;2023-04-19T04:32:02;9.45;;;6.75;;
51244;SDS011;37840;47.562;18.738;2023-04-19T04:34:30;7.65;;;6.18;;
51244;SDS011;37840;47.562;18.738;2023-04-19T04:36:57;8.30;;;6.62;;
51244;SDS011;37840;47.562;18.738;2023-04-19T04:39:23;11.32;;;7.35;;
51244;SDS011;37840;47.562;18.738;2023-04-19T04:41:49;7.78;;;6.43;;
51244;SDS011;37840;47.562;18.738;2023-04-19T04:44:16;8.25;;;6.65;;
51244;SDS011;37840;47.562;18.738;2023-04-19T04:46:42;7.95;;;6.60;;
51244;SDS011;37840;47.562;18.738;2023-04-19T04:49:08;8.50;;;6.45;;
51244;SDS011;37840;47.562;18.738;2023-04-19T04:51:34;7.65;;;6.62;;
51244;SDS011;37840;47.562;18.738;2023-04-19T04:54:01;7.25;;;5.68;;
51244;SDS011;37840;47.562;18.738;2023-04-19T04:56:27;6.75;;;5.57;;
51244;SDS011;37840;47.562;18.738;2023-04-19T04:58:53;6.57;;;5.50;;
51244;SDS011;37840;47.562;18.738;2023-04-19T05:01:20;8.10;;;6.00;;
51244;SDS011;37840;47.562;18.738;2023-04-19T05:03:47;7.87;;;5.57;;
51244;SDS011;37840;47.562;18.738;2023-04-19T05:06:13;7.05;;;5.87;;
51244;SDS011;37840;47.562;18.738;2023-04-19T05:08:38;8.10;;;6.75;;
51244;SDS011;37840;47.562;18.738;2023-04-19T05:11:04;7.78;;;6.15;;
51244;SDS011;37840;47.562;18.738;2023-04-19T05:13:30;7.87;;;6.43;;
51244;SDS011;37840;47.562;18.738;2023-04-19T05:15:56;8.20;;;6.62;;
51244;SDS011;37840;47.562;18.738;2023-04-19T05:18:22;7.80;;;5.97;;
51244;SDS011;37840;47.562;18.738;2023-04-19T05:20:48;6.53;;;5.25;;
51244;SDS011;37840;47.562;18.738;2023-04-19T05:23:14;8.68;;;6.22;;
51244;SDS011;37840;47.562;18.738;2023-04-19T05:25:40;9.27;;;7.68;;
51244;SDS011;37840;47.562;18.738;2023-04-19T05:28:06;9.13;;;6.65;;
51244;SDS011;37840;47.562;18.738;2023-04-19T05:30:32;6.65;;;5.62;;
51244;SDS011;37840;47.562;18.738;2023-04-19T05:32:58;6.57;;;5.18;;
51244;SDS011;37840;47.562;18.738;2023-04-19T05:35:24;6.35;;;5.32;;
51244;SDS011;37840;47.562;18.738;2023-04-19T05:37:50;7.57;;;5.53;;
51244;SDS011;37840;47.562;18.738;2023-04-19T05:40:16;7.12;;;5.70;;
51244;SDS011;37840;47.562;18.738;2023-04-19T05:42:42;9.50;;;5.30;;
51244;SDS011;37840;47.562;18.738;2023-04-19T05:45:08;8.18;;;5.70;;
51244;SDS011;37840;47.562;18.738;2023-04-19T05:47:34;6.97;;;5.35;;
51244;SDS011;37840;47.562;18.738;2023-04-19T05:50:01;7.90;;;6.18;;
51244;SDS011;37840;47.562;18.738;2023-04-19T05:52:27;6.05;;;5.20;;
51244;SDS011;37840;47.562;18.738;2023-04-19T05:54:53;7.53;;;5.35;;
51244;SDS011;37840;47.562;18.738;2023-04-19T05:57:19;5.93;;;5.05;;
51244;SDS011;37840;47.562;18.738;2023-04-19T05:59:45;7.80;;;5.78;;
51244;SDS011;37840;47.562;18.738;2023-04-19T06:02:11;7.65;;;5.97;;
51244;SDS011;37840;47.562;18.738;2023-04-19T06:04:37;6.68;;;5.93;;
51244;SDS011;37840;47.562;18.738;2023-04-19T06:07:03;8.07;;;6.25;;
51244;SDS011;37840;47.562;18.738;2023-04-19T06:09:29;7.47;;;6.07;;
51244;SDS011;37840;47.562;18.738;2023-04-19T06:11:55;8.25;;;6.20;;
51244;SDS011;37840;47.562;18.738;2023-04-19T06:14:21;7.10;;;6.05;;
51244;SDS011;37840;47.562;18.738;2023-04-19T06:16:47;8.30;;;6.40;;
51244;SDS011;37840;47.562;18.738;2023-04-19T06:19:13;9.88;;;6.93;;
51244;SDS011;37840;47.562;18.738;2023-04-19T06:21:39;8.48;;;6.82;;
51244;SDS011;37840;47.562;18.738;2023-04-19T06:24:05;10.18;;;7.05;;
51244;SDS011;37840;47.562;18.738;2023-04-19T06:26:32;9.20;;;7.60;;
51244;SDS011;37840;47.562;18.738;2023-04-19T06:28:58;9.15;;;7.55;;
51244;SDS011;37840;47.562;18.738;2023-04-19T06:31:23;8.20;;;7.30;;
51244;SDS011;37840;47.562;18.738;2023-04-19T06:33:49;10.50;;;7.07;;
51244;SDS011;37840;47.562;18.738;2023-04-19T06:36:16;8.88;;;7.07;;
51244;SDS011;37840;47.562;18.738;2023-04-19T06:38:42;7.50;;;6.07;;
51244;SDS011;37840;47.562;18.738;2023-04-19T06:41:10;7.30;;;6.45;;
51244;SDS011;37840;47.562;18.738;2023-04-19T06:43:36;8.88;;;7.25;;
51244;SDS011;37840;47.562;18.738;2023-04-19T06:46:05;8.77;;;6.78;;
51244;SDS011;37840;47.562;18.738;2023-04-19T06:48:32;5.95;;;5.30;;
51244;SDS011;37840;47.562;18.738;2023-04-19T06:50:58;6.00;;;5.40;;
51244;SDS011;37840;47.562;18.738;2023-04-19T06:53:24;10.23;;;5.93;;
51244;SDS011;37840;47.562;18.738;2023-04-19T06:55:58;6.22;;;5.00;;
51244;SDS011;37840;47.562;18.738;2023-04-19T06:58:26;6.03;;;5.43;;
51244;SDS011;37840;47.562;18.738;2023-04-19T07:00:53;6.80;;;5.62;;
51244;SDS011;37840;47.562;18.738;2023-04-19T07:03:19;7.78;;;6.05;;
51244;SDS011;37840;47.562;18.738;2023-04-19T07:05:46;7.05;;;6.35;;
51244;SDS011;37840;47.562;18.738;2023-04-19T07:08:12;10.13;;;6.00;;
51244;SDS011;37840;47.562;18.738;2023-04-19T07:10:38;9.05;;;5.95;;
51244;SDS011;37840;47.562;18.738;2023-04-19T07:13:04;6.85;;;5.82;;
51244;SDS011;37840;47.562;18.738;2023-04-19T07:15:30;7.68;;;5.80;;
51244;SDS011;37840;47.562;18.738;2023-04-19T07:17:56;7.22;;;6.28;;
51244;SDS011;37840;47.562;18.738;2023-04-19T07:20:22;6.93;;;5.65;;
51244;SDS011;37840;47.562;18.738;2023-04-19T07:22:48;5.93;;;5.30;;
51244;SDS011;37840;47.562;18.738;2023-04-19T07:25:14;6.15;;;5.55;;
51244;SDS011;37840;47.562;18.738;2023-04-19T07:27:39;7.35;;;5.35;;
51244;SDS011;37840;47.562;18.738;2023-04-19T07:30:06;6.57;;;4.78;;
51244;SDS011;37840;47.562;18.738;2023-04-19T07:32:32;6.43;;;5.55;;
51244;SDS011;37840;47.562;18.738;2023-04-19T07:34:58;7.22;;;5.60;;
51244;SDS011;37840;47.562;18.738;2023-04-19T07:37:24;6.03;;;5.40;;
51244;SDS011;37840;47.562;18.738;2023-04-19T07:39:50;6.25;;;5.45;;
51244;SDS011;37840;47.562;18.738;2023-04-19T07:42:16;7.53;;;5.72;;
51244;SDS011;37840;47.562;18.738;2023-04-19T07:44:42;6.95;;;5.12;;
51244;SDS011;37840;47.562;18.738;2023-04-19T07:47:08;5.78;;;5.03;;
51244;SDS011;37840;47.562;18.738;2023-04-19T07:49:33;8.98;;;6.25;;
51244;SDS011;37840;47.562;18.738;2023-04-19T07:52:00;7.22;;;5.72;;
51244;SDS011;37840;47.562;18.738;2023-04-19T07:54:26;7.35;;;5.93;;
51244;SDS011;37840;47.562;18.738;2023-04-19T07:56:52;7.70;;;5.97;;
51244;SDS011;37840;47.562;18.738;2023-04-19T07:59:18;8.30;;;5.53;;
51244;SDS011;37840;47.562;18.738;2023-04-19T08:01:44;6.37;;;5.20;;
51244;SDS011;37840;47.562;18.738;2023-04-19T08:04:10;5.90;;;5.30;;
51244;SDS011;37840;47.562;18.738;2023-04-19T08:06:36;7.05;;;5.93;;
51244;SDS011;37840;47.562;18.738;2023-04-19T08:09:04;7.25;;;5.72;;
51244;SDS011;37840;47.562;18.738;2023-04-19T08:11:30;6.22;;;5.55;;
51244;SDS011;37840;47.562;18.738;2023-04-19T08:13:56;7.30;;;5.62;;
51244;SDS011;37840;47.562;18.738;2023-04-19T08:16:22;7.45;;;6.15;;
51244;SDS011;37840;47.562;18.738;2023-04-19T08:18:48;7.90;;;6.18;;
51244;SDS011;37840;47.562;18.738;2023-04-19T08:21:16;7.00;;;5.78;;
51244;SDS011;37840;47.562;18.738;2023-04-19T08:23:42;7.57;;;5.50;;
51244;SDS011;37840;47.562;18.738;2023-04-19T08:26:08;10.50;;;7.25;;
51244;SDS011;37840;47.562;18.738;2023-04-19T08:28:34;7.62;;;6.72;;
51244;SDS011;37840;47.562;18.738;2023-04-19T08:31:04;7.60;;;5.12;;
51244;SDS011;37840;47.562;18.738;2023-04-19T08:33:32;6.35;;;5.68;;
51244;SDS011;37840;47.562;18.738;2023-04-19T08:35:58;8.73;;;5.65;;
51244;SDS011;37840;47.562;18.738;2023-04-19T08:38:23;6.47;;;5.45;;
51244;SDS011;37840;47.562;18.738;2023-04-19T08:40:53;9.15;;;6.22;;
51244;SDS011;37840;47.562;18.738;2023-04-19T08:43:20;6.82;;;5.90;;
51244;SDS011;37840;47.562;18.738;2023-04-19T08:45:49;5.93;;;5.32;;
51244;SDS011;37840;47.562;18.738;2023-04-19T08:48:16;7.18;;;5.78;;
51244;SDS011;37840;47.562;18.738;2023-04-19T08:50:42;6.10;;;5.50;;
51244;SDS011;37840;47.562;18.738;2023-04-19T08:53:10;7.22;;;6.32;;
51244;SDS011;37840;47.562;18.738;2023-04-19T08:55:40;7.70;;;5.80;;
51244;SDS011;37840;47.562;18.738;2023-04-19T08:58:08;7.05;;;6.35;;
51244;SDS011;37840;47.562;18.738;2023-04-19T09:00:36;8.77;;;6.55;;
51244;SDS011;37840;47.562;18.738;2023-04-19T09:03:03;7.80;;;7.10;;
51244;SDS011;37840;47.562;18.738;2023-04-19T09:05:31;7.40;;;6.18;;
51244;SDS011;37840;47.562;18.738;2023-04-19T09:10:53;8.60;;;6.93;;
51244;SDS011;37840;47.562;18.738;2023-04-19T09:13:23;8.07;;;7.00;;
51244;SDS011;37840;47.562;18.738;2023-04-19T09:15:50;6.68;;;5.97;;
51244;SDS011;37840;47.562;18.738;2023-04-19T09:18:17;7.75;;;6.57;;
51244;SDS011;37840;47.562;18.738;2023-04-19T09:20:44;7.57;;;6.80;;
51244;SDS011;37840;47.562;18.738;2023-04-19T09:23:12;7.78;;;6.97;;
51244;SDS011;37840;47.562;18.738;2023-04-19T09:25:39;7.75;;;6.68;;
51244;SDS011;37840;47.562;18.738;2023-04-19T09:28:16;7.70;;;6.90;;
51244;SDS011;37840;47.562;18.738;2023-04-19T09:30:42;7.65;;;6.85;;
51244;SDS011;37840;47.562;18.738;2023-04-19T09:33:08;8.40;;;7.12;;
51244;SDS011;37840;47.562;18.738;2023-04-19T09:35:41;10.02;;;6.53;;
51244;SDS011;37840;47.562;18.738;2023-04-19T09:38:09;9.88;;;6.93;;
51244;SDS011;37840;47.562;18.738;2023-04-19T09:40:36;8.13;;;6.80;;
51244;SDS011;37840;47.562;18.738;2023-04-19T09:43:02;8.98;;;7.15;;
51244;SDS011;37840;47.562;18.738;2023-04-19T09:45:42;8.48;;;7.20;;
51244;SDS011;37840;47.562;18.738;2023-04-19T09:48:09;8.88;;;6.82;;
51244;SDS011;37840;47.562;18.738;2023-04-19T09:50:36;8.15;;;7.35;;
51244;SDS011;37840;47.562;18.738;2023-04-19T09:53:17;10.15;;;8.32;;
51244;SDS011;37840;47.562;18.738;2023-04-19T09:55:44;9.13;;;8.20;;
51244;SDS011;37840;47.562;18.738;2023-04-19T09:58:12;10.00;;;7.53;;
51244;SDS011;37840;47.562;18.738;2023-04-19T10:00:40;9.10;;;7.93;;
51244;SDS011;37840;47.562;18.738;2023-04-19T10:03:08;8.90;;;8.02;;
51244;SDS011;37840;47.562;18.738;2023-04-19T10:05:36;9.20;;;8.20;;
51244;SDS011;37840;47.562;18.738;2023-04-19T10:08:06;9.13;;;8.25;;
51244;SDS011;37840;47.562;18.738;2023-04-19T10:10:33;9.50;;;8.18;;
51244;SDS011;37840;47.562;18.738;2023-04-19T10:12:59;7.65;;;6.85;;
51244;SDS011;37840;47.562;18.738;2023-04-19T10:15:28;10.00;;;7.50;;
51244;SDS011;37840;47.562;18.738;2023-04-19T10:17:56;10.27;;;8.32;;
51244;SDS011;37840;47.562;18.738;2023-04-19T10:20:22;9.55;;;7.10;;
51244;SDS011;37840;47.562;18.738;2023-04-19T10:23:10;8.80;;;7.87;;
51244;SDS011;37840;47.562;18.738;2023-04-19T10:25:36;8.38;;;7.57;;
51244;SDS011;37840;47.562;18.738;2023-04-19T10:28:03;9.80;;;8.80;;
51244;SDS011;37840;47.562;18.738;2023-04-19T10:30:29;8.98;;;7.97;;
51244;SDS011;37840;47.562;18.738;2023-04-19T10:32:56;10.00;;;8.45;;
51244;SDS011;37840;47.562;18.738;2023-04-19T10:35:27;9.27;;;8.30;;
51244;SDS011;37840;47.562;18.738;2023-04-19T10:43:18;10.10;;;9.10;;
51244;SDS011;37840;47.562;18.738;2023-04-19T10:45:44;9.70;;;8.65;;
51244;SDS011;37840;47.562;18.738;2023-04-19T10:50:57;11.63;;;9.10;;
51244;SDS011;37840;47.562;18.738;2023-04-19T10:53:42;11.57;;;9.68;;
51244;SDS011;37840;47.562;18.738;2023-04-19T10:56:13;10.43;;;9.43;;
51244;SDS011;37840;47.562;18.738;2023-04-19T11:04:04;11.52;;;9.82;;
51244;SDS011;37840;47.562;18.738;2023-04-19T11:06:31;10.32;;;9.23;;
51244;SDS011;37840;47.562;18.738;2023-04-19T11:08:58;9.82;;;8.82;;
51244;SDS011;37840;47.562;18.738;2023-04-19T11:11:25;11.10;;;10.00;;
51244;SDS011;37840;47.562;18.738;2023-04-19T11:13:54;10.35;;;9.15;;
51244;SDS011;37840;47.562;18.738;2023-04-19T11:16:22;11.40;;;9.80;;
51244;SDS011;37840;47.562;18.738;2023-04-19T11:18:48;11.27;;;9.52;;
51244;SDS011;37840;47.562;18.738;2023-04-19T11:21:16;12.00;;;10.35;;
51244;SDS011;37840;47.562;18.738;2023-04-19T11:23:43;11.85;;;10.13;;
51244;SDS011;37840;47.562;18.738;2023-04-19T11:26:09;12.68;;;9.73;;
51244;SDS011;37840;47.562;18.738;2023-04-19T11:28:36;11.50;;;10.13;;
51244;SDS011;37840;47.562;18.738;2023-04-19T11:31:03;11.70;;;9.82;;
51244;SDS011;37840;47.562;18.738;2023-04-19T11:33:32;9.75;;;8.35;;
51244;SDS011;37840;47.562;18.738;2023-04-19T11:35:59;10.40;;;9.05;;
51244;SDS011;37840;47.562;18.738;2023-04-19T11:38:29;10.77;;;8.15;;
51244;SDS011;37840;47.562;18.738;2023-04-19T11:40:59;9.57;;;7.73;;
51244;SDS011;37840;47.562;18.738;2023-04-19T11:43:35;9.20;;;8.25;;
51244;SDS011;37840;47.562;18.738;2023-04-19T11:46:05;8.85;;;7.95;;
51244;SDS011;37840;47.562;18.738;2023-04-19T11:48:35;8.93;;;8.02;;
51244;SDS011;37840;47.562;18.738;2023-04-19T11:51:01;9.10;;;7.82;;
51244;SDS011;37840;47.562;18.738;2023-04-19T11:53:28;10.57;;;8.38;;
51244;SDS011;37840;47.562;18.738;2023-04-19T11:58:29;7.78;;;6.97;;
51244;SDS011;37840;47.562;18.738;2023-04-19T12:01:07;8.43;;;7.62;;
51244;SDS011;37840;47.562;18.738;2023-04-19T12:03:39;8.13;;;6.95;;
51244;SDS011;37840;47.562;18.738;2023-04-19T12:06:10;7.72;;;6.93;;
51244;SDS011;37840;47.562;18.738;2023-04-19T12:08:47;8.55;;;6.90;;
51244;SDS011;37840;47.562;18.738;2023-04-19T12:11:14;8.20;;;7.40;;
51244;SDS011;37840;47.562;18.738;2023-04-19T12:13:43;9.05;;;7.30;;
51244;SDS011;37840;47.562;18.738;2023-04-19T12:16:09;8.90;;;7.75;;
51244;SDS011;37840;47.562;18.738;2023-04-19T12:18:47;9.05;;;7.12;;
51244;SDS011;37840;47.562;18.738;2023-04-19T12:21:24;7.22;;;6.22;;
51244;SDS011;37840;47.562;18.738;2023-04-19T12:23:57;8.68;;;6.70;;
51244;SDS011;37840;47.562;18.738;2023-04-19T12:26:28;6.65;;;6.05;;
51244;SDS011;37840;47.562;18.738;2023-04-19T12:28:54;7.05;;;6.35;;
51244;SDS011;37840;47.562;18.738;2023-04-19T12:31:20;7.82;;;6.93;;
51244;SDS011;37840;47.562;18.738;2023-04-19T12:33:47;9.75;;;8.27;;
51244;SDS011;37840;47.562;18.738;2023-04-19T12:36:13;12.63;;;9.93;;
51244;SDS011;37840;47.562;18.738;2023-04-19T12:38:39;12.55;;;11.02;;
51244;SDS011;37840;47.562;18.738;2023-04-19T12:41:05;10.88;;;9.48;;
51244;SDS011;37840;47.562;18.738;2023-04-19T12:43:31;11.93;;;10.18;;
51244;SDS011;37840;47.562;18.738;2023-04-19T12:45:58;10.98;;;9.55;;
51244;SDS011;37840;47.562;18.738;2023-04-19T12:48:24;13.62;;;11.27;;
51244;SDS011;37840;47.562;18.738;2023-04-19T12:50:51;13.93;;;12.35;;
51244;SDS011;37840;47.562;18.738;2023-04-19T12:53:17;12.98;;;11.65;;
51244;SDS011;37840;47.562;18.738;2023-04-19T12:55:43;14.02;;;11.73;;
51244;SDS011;37840;47.562;18.738;2023-04-19T12:58:13;13.90;;;12.40;;
51244;SDS011;37840;47.562;18.738;2023-04-19T13:00:40;14.63;;;12.55;;
51244;SDS011;37840;47.562;18.738;2023-04-19T13:03:06;14.98;;;11.73;;
51244;SDS011;37840;47.562;18.738;2023-04-19T13:05:32;16.30;;;13.10;;
51244;SDS011;37840;47.562;18.738;2023-04-19T13:07:58;13.82;;;12.30;;
51244;SDS011;37840;47.562;18.738;2023-04-19T13:10:24;13.50;;;11.60;;
51244;SDS011;37840;47.562;18.738;2023-04-19T13:12:50;13.02;;;11.25;;
51244;SDS011;37840;47.562;18.738;2023-04-19T13:15:16;12.77;;;11.15;;
51244;SDS011;37840;47.562;18.738;2023-04-19T13:17:42;15.45;;;11.35;;
51244;SDS011;37840;47.562;18.738;2023-04-19T13:20:09;12.35;;;10.43;;
51244;SDS011;37840;47.562;18.738;2023-04-19T13:22:35;12.60;;;10.82;;
51244;SDS011;37840;47.562;18.738;2023-04-19T13:25:01;12.55;;;10.65;;
51244;SDS011;37840;47.562;18.738;2023-04-19T13:27:27;12.13;;;9.82;;
51244;SDS011;37840;47.562;18.738;2023-04-19T13:29:53;11.32;;;10.13;;
51244;SDS011;37840;47.562;18.738;2023-04-19T13:32:20;12.60;;;9.63;;
51244;SDS011;37840;47.562;18.738;2023-04-19T13:34:46;10.27;;;9.23;;
51244;SDS011;37840;47.562;18.738;2023-04-19T13:37:12;9.98;;;8.88;;
51244;SDS011;37840;47.562;18.738;2023-04-19T13:39:39;10.77;;;9.50;;
51244;SDS011;37840;47.562;18.738;2023-04-19T13:42:05;10.77;;;8.95;;
51244;SDS011;37840;47.562;18.738;2023-04-19T13:44:31;9.55;;;8.55;;
51244;SDS011;37840;47.562;18.738;2023-04-19T13:46:57;9.32;;;8.18;;
51244;SDS011;37840;47.562;18.738;2023-04-19T13:49:23;9.77;;;8.57;;
51244;SDS011;37840;47.562;18.738;2023-04-19T13:51:49;9.85;;;7.90;;
51244;SDS011;37840;47.562;18.738;2023-04-19T13:54:15;9.40;;;8.02;;
51244;SDS011;37840;47.562;18.738;2023-04-19T13:56:42;11.18;;;8.70;;
51244;SDS011;37840;47.562;18.738;2023-04-19T13:59:08;10.70;;;8.02;;
51244;SDS011;37840;47.562;18.738;2023-04-19T14:01:34;8.30;;;7.45;;
51244;SDS011;37840;47.562;18.738;2023-04-19T14:04:01;9.35;;;7.60;;
51244;SDS011;37840;47.562;18.738;2023-04-19T14:06:27;9.35;;;7.20;;
51244;SDS011;37840;47.562;18.738;2023-04-19T14:08:53;8.88;;;7.60;;
51244;SDS011;37840;47.562;18.738;2023-04-19T14:11:19;10.32;;;7.40;;
51244;SDS011;37840;47.562;18.738;2023-04-19T14:13:45;9.68;;;8.30;;
51244;SDS011;37840;47.562;18.738;2023-04-19T14:16:13;10.40;;;9.02;;
51244;SDS011;37840;47.562;18.738;2023-04-19T14:18:39;8.82;;;7.53;;
51244;SDS011;37840;47.562;18.738;2023-04-19T14:21:05;8.63;;;6.68;;
51244;SDS011;37840;47.562;18.738;2023-04-19T14:23:31;7.72;;;6.32;;
51244;SDS011;37840;47.562;18.738;2023-04-19T14:25:58;7.20;;;6.50;;
51244;SDS011;37840;47.562;18.738;2023-04-19T14:28:24;8.98;;;6.85;;
51244;SDS011;37840;47.562;18.738;2023-04-19T14:30:50;9.75;;;6.70;;
51244;SDS011;37840;47.562;18.738;2023-04-19T14:33:16;6.97;;;5.90;;
51244;SDS011;37840;47.562;18.738;2023-04-19T14:35:42;7.72;;;6.37;;
51244;SDS011;37840;47.562;18.738;2023-04-19T14:38:08;6.95;;;6.10;;
51244;SDS011;37840;47.562;18.738;2023-04-19T14:40:34;8.75;;;7.25;;
51244;SDS011;37840;47.562;18.738;2023-04-19T14:43:00;8.13;;;6.95;;
51244;SDS011;37840;47.562;18.738;2023-04-19T14:45:26;7.90;;;6.55;;
51244;SDS011;37840;47.562;18.738;2023-04-19T14:47:52;7.37;;;6.07;;